Nur fliegen ist schöner ....

Willkommen beim Flugservice Bautzen GmbH

Wir sind eine nach europäischen Richtlinien zugelassene Flugschule und lizenziertes Luftfahrtunternehmen. Bei uns können sie nicht nur Rundflüge über die Oberlausitz oder Sachsen buchen, sondern in unserer Flugschule selber das Fliegen erlernen. Erfahrene Fluglehrer stehen ihnen dabei zur Seite.

Wir bieten außerdem Businessflüghe sowie Transportleistungen auf dem Luftweg, ganz nach ihren Wünschen, an. Schauen sie sich in Ruhe bei uns um und wenn sie Fragen haben oder weitere Informationen benötigen, scheuen sie sich nicht Kontakt mit uns aufzunehmen.

Rundflüge können sie ganz leicht auch online in unserem Shop buchen.

Terminkalender

Letzter Monat August 2016 Nächster Monat
Mo Di Mi Do Fr Sa So
week 31 1 2 3 4 5 6 7
week 32 8 9 10 11 12 13 14
week 33 15 16 17 18 19 20 21
week 34 22 23 24 25 26 27 28
week 35 29 30 31

Flugwetterinfo

[Quelle: ADDS]
METAR
EDDC 290450Z 23003KT 200V270 9999 BKN024 19/17 Q1015 NOSIG =
TAF
EDDC 282300Z 2900/2924 25006KT CAVOK BECMG 2909/2911 28011KT BECMG 2916/2918 29004KT =
SR / SS: 04:11 / 17:53 UTC (EDAB Flugplatz Bautzen 2016-08-29)

Webcam EDAB

Webcam EDAB
Flugservice Bautzen GmbH, Kornmarkt 34, 02625 Bautzen  Telefon: +49 (3591) 211105, Telefax: +49 (3591) 274512, E-Mail:  flugservice(at)fsbautzen.de